Time;durP1;ratioP1;P1;durP2;ratioP2;P2;SDS_P1;SDS_P2;PMS_P1;PMS_P2;Temp;Humidity;BMP_temperature;BMP_pressure;BME280_temperature;BME280_humidity;BME280_pressure;Samples;Min_cycle;Max_cycle;Signal;HPM_P1;HPM_P2
2021/01/09 00:02:03;;;;;;;15.37;5.97;;;;;;;;;;4412355;32;20299;-58
2021/01/09 00:04:29;;;;;;;8.00;5.13;;;;;;;;;;4412748;32;20278;-56
2021/01/09 00:06:54;;;;;;;3.00;2.10;;;;;;;;;;4398532;32;20317;-56
2021/01/09 00:09:20;;;;;;;3.13;2.13;;;;;;;;;;4413131;32;20567;-57
2021/01/09 00:11:45;;;;;;;4.30;2.90;;;;;;;;;;4407363;32;20738;-57
2021/01/09 00:14:11;;;;;;;4.63;2.00;;;;;;;;;;4406004;32;20353;-55
2021/01/09 00:16:37;;;;;;;7.63;2.83;;;;;;;;;;4410309;32;20280;-56
2021/01/09 00:19:04;;;;;;;6.40;3.33;;;;;;;;;;4407062;32;20430;-56
2021/01/09 00:21:36;;;;;;;6.33;3.83;;;;;;;;;;4407583;32;20539;-56
2021/01/09 00:24:04;;;;;;;7.67;4.20;;;;;;;;;;4407435;32;20255;-56
2021/01/09 00:26:29;;;;;;;7.40;4.67;;;;;;;;;;4411053;32;20232;-56
2021/01/09 00:28:55;;;;;;;5.83;3.60;;;;;;;;;;4413527;32;20300;-56
2021/01/09 00:31:21;;;;;;;4.53;2.93;;;;;;;;;;4415583;32;20323;-55
2021/01/09 00:33:47;;;;;;;6.30;2.10;;;;;;;;;;4415983;32;20232;-56
2021/01/09 00:36:13;;;;;;;13.23;5.60;;;;;;;;;;4411791;32;20572;-56
2021/01/09 00:38:38;;;;;;;12.47;6.07;;;;;;;;;;4410316;32;20318;-56
2021/01/09 00:41:04;;;;;;;19.07;10.70;;;;;;;;;;4413396;32;20263;-56
2021/01/09 00:43:29;;;;;;;11.10;5.23;;;;;;;;;;4411830;32;20269;-56
2021/01/09 00:45:55;;;;;;;13.30;5.53;;;;;;;;;;4410058;32;20311;-56
2021/01/09 00:48:20;;;;;;;3.47;2.37;;;;;;;;;;4408961;32;20411;-56
2021/01/09 00:50:46;;;;;;;4.67;2.63;;;;;;;;;;4406161;32;20282;-55
2021/01/09 00:53:12;;;;;;;7.23;3.23;;;;;;;;;;4409595;32;20340;-56
2021/01/09 00:55:37;;;;;;;11.73;5.50;;;;;;;;;;4413496;32;20259;-57
2021/01/09 00:58:03;;;;;;;13.17;6.80;;;;;;;;;;4409859;32;20335;-57
2021/01/09 01:00:28;;;;;;;12.13;5.27;;;;;;;;;;4413431;32;20308;-56
2021/01/09 01:02:54;;;;;;;13.50;5.83;;;;;;;;;;4403986;32;20364;-56
2021/01/09 01:05:19;;;;;;;11.23;4.30;;;;;;;;;;4406485;32;20583;-55
2021/01/09 01:07:45;;;;;;;5.53;3.43;;;;;;;;;;4403209;32;20342;-56
2021/01/09 01:10:12;;;;;;;8.70;2.77;;;;;;;;;;4412697;32;20328;-56
2021/01/09 01:12:37;;;;;;;5.83;2.70;;;;;;;;;;4414483;32;20239;-55
2021/01/09 01:15:04;;;;;;;5.60;2.77;;;;;;;;;;4415397;32;20233;-55
2021/01/09 01:17:29;;;;;;;6.73;3.50;;;;;;;;;;4414193;32;20294;-56
2021/01/09 01:19:55;;;;;;;5.10;3.17;;;;;;;;;;4410660;32;20651;-56
2021/01/09 01:22:20;;;;;;;5.77;3.27;;;;;;;;;;4404814;32;20332;-56
2021/01/09 01:24:46;;;;;;;6.83;3.00;;;;;;;;;;4409413;32;20293;-56
2021/01/09 01:27:11;;;;;;;2.33;1.47;;;;;;;;;;4413672;32;20760;-56
2021/01/09 01:29:37;;;;;;;1.73;1.37;;;;;;;;;;4417305;32;20287;-56
2021/01/09 01:32:02;;;;;;;1.30;1.20;;;;;;;;;;4397966;32;20342;-56
2021/01/09 01:34:28;;;;;;;1.17;1.07;;;;;;;;;;4408535;32;20339;-56
2021/01/09 01:36:53;;;;;;;1.33;1.10;;;;;;;;;;4405582;32;20248;-56
2021/01/09 01:39:19;;;;;;;1.70;1.10;;;;;;;;;;4412359;32;20217;-55
2021/01/09 01:41:45;;;;;;;2.17;1.13;;;;;;;;;;4405010;32;20328;-56
2021/01/09 01:44:11;;;;;;;2.10;1.43;;;;;;;;;;4403692;32;20300;-57
2021/01/09 01:46:38;;;;;;;3.47;1.97;;;;;;;;;;4403806;32;20328;-57
2021/01/09 01:49:06;;;;;;;1.73;1.10;;;;;;;;;;4390545;32;20836;-58
2021/01/09 01:51:32;;;;;;;3.73;1.40;;;;;;;;;;4399845;32;20374;-59
2021/01/09 01:53:57;;;;;;;1.67;1.00;;;;;;;;;;4405692;32;20397;-58
2021/01/09 01:56:23;;;;;;;1.20;1.10;;;;;;;;;;4405708;32;20364;-58
2021/01/09 01:58:48;;;;;;;2.30;1.30;;;;;;;;;;4406592;32;20308;-59
2021/01/09 02:01:18;;;;;;;2.63;1.20;;;;;;;;;;4415114;32;20681;-59
2021/01/09 02:03:43;;;;;;;4.00;1.27;;;;;;;;;;4402857;32;20691;-59
2021/01/09 02:06:19;;;;;;;4.03;1.23;;;;;;;;;;4411898;32;20311;-58
2021/01/09 02:08:51;;;;;;;1.77;1.00;;;;;;;;;;4401327;32;20249;-58
2021/01/09 02:11:26;;;;;;;3.40;0.90;;;;;;;;;;4413935;32;20233;-57
2021/01/09 02:13:57;;;;;;;1.77;1.00;;;;;;;;;;4408592;32;20358;-55
2021/01/09 02:16:25;;;;;;;2.83;1.70;;;;;;;;;;4410923;32;20218;-55
2021/01/09 02:18:52;;;;;;;3.30;2.10;;;;;;;;;;4407988;32;20286;-56
2021/01/09 02:21:42;;;;;;;3.90;2.30;;;;;;;;;;4413258;32;20241;-56
2021/01/09 02:24:11;;;;;;;7.73;3.77;;;;;;;;;;4407678;32;20575;-57
2021/01/09 02:26:36;;;;;;;5.07;3.90;;;;;;;;;;4414776;32;20326;-57
2021/01/09 02:29:02;;;;;;;4.40;2.00;;;;;;;;;;4405283;32;20635;-57
2021/01/09 02:31:29;;;;;;;3.03;2.40;;;;;;;;;;4415884;32;20739;-57
2021/01/09 02:33:55;;;;;;;2.10;1.37;;;;;;;;;;4409801;32;20233;-57
2021/01/09 02:36:21;;;;;;;2.50;1.50;;;;;;;;;;4415384;32;20288;-57
2021/01/09 02:38:47;;;;;;;1.57;1.30;;;;;;;;;;4405074;32;20285;-56
2021/01/09 02:41:14;;;;;;;2.00;1.23;;;;;;;;;;4414415;32;20213;-55
2021/01/09 02:43:39;;;;;;;3.00;1.77;;;;;;;;;;4406566;32;20241;-55
2021/01/09 02:46:05;;;;;;;3.10;1.60;;;;;;;;;;4404597;32;20240;-56
2021/01/09 02:48:30;;;;;;;1.87;1.50;;;;;;;;;;4406342;32;20225;-55
2021/01/09 02:50:55;;;;;;;4.57;2.27;;;;;;;;;;4401069;32;20556;-55
2021/01/09 02:53:21;;;;;;;2.60;1.53;;;;;;;;;;4400579;32;20293;-55
2021/01/09 02:55:46;;;;;;;2.33;1.43;;;;;;;;;;4404838;32;20226;-56
2021/01/09 02:58:12;;;;;;;3.83;2.10;;;;;;;;;;4409582;32;20244;-56
2021/01/09 03:00:37;;;;;;;4.20;1.67;;;;;;;;;;4414059;32;20255;-57
2021/01/09 03:03:03;;;;;;;5.23;2.07;;;;;;;;;;4414265;32;20541;-57
2021/01/09 03:05:28;;;;;;;3.77;2.20;;;;;;;;;;4411382;32;20304;-57
2021/01/09 03:07:54;;;;;;;5.43;2.93;;;;;;;;;;4407158;32;20320;-56
2021/01/09 03:10:19;;;;;;;2.93;1.80;;;;;;;;;;4405495;32;20241;-55
2021/01/09 03:12:45;;;;;;;4.93;2.50;;;;;;;;;;4405219;32;20760;-55
2021/01/09 03:15:11;;;;;;;3.67;2.60;;;;;;;;;;4406574;32;20605;-55
2021/01/09 03:17:36;;;;;;;7.10;4.13;;;;;;;;;;4411292;32;20305;-55
2021/01/09 03:20:02;;;;;;;11.13;6.10;;;;;;;;;;4406500;32;20709;-55
2021/01/09 03:22:28;;;;;;;10.43;6.13;;;;;;;;;;4413479;32;20320;-56
2021/01/09 03:24:53;;;;;;;13.20;6.50;;;;;;;;;;4396674;32;20322;-57
2021/01/09 03:27:19;;;;;;;8.70;3.77;;;;;;;;;;4408650;32;20278;-56
2021/01/09 03:29:44;;;;;;;5.57;2.77;;;;;;;;;;4409486;32;20788;-57
2021/01/09 03:32:10;;;;;;;2.70;1.90;;;;;;;;;;4411616;32;20288;-57
2021/01/09 03:34:35;;;;;;;8.50;4.13;;;;;;;;;;4405607;32;20336;-57
2021/01/09 03:37:01;;;;;;;8.23;3.03;;;;;;;;;;4408010;32;20301;-57
2021/01/09 03:39:26;;;;;;;5.40;2.33;;;;;;;;;;4414175;32;20236;-56
2021/01/09 03:41:52;;;;;;;15.53;6.63;;;;;;;;;;4408740;32;20673;-56
2021/01/09 03:44:17;;;;;;;10.33;4.03;;;;;;;;;;4410273;32;20224;-56
2021/01/09 03:46:43;;;;;;;8.93;4.50;;;;;;;;;;4398371;32;20282;-56
2021/01/09 03:49:08;;;;;;;9.97;5.60;;;;;;;;;;4412493;32;20217;-56
2021/01/09 03:51:34;;;;;;;3.67;2.40;;;;;;;;;;4391874;32;20789;-56
2021/01/09 03:53:59;;;;;;;3.73;3.00;;;;;;;;;;4399440;32;20570;-56
2021/01/09 03:56:25;;;;;;;4.27;3.03;;;;;;;;;;4396936;32;20817;-57
2021/01/09 03:58:50;;;;;;;2.13;1.93;;;;;;;;;;4398277;32;20777;-57
2021/01/09 04:01:16;;;;;;;4.33;2.90;;;;;;;;;;4406826;32;20310;-58
2021/01/09 04:03:41;;;;;;;3.17;2.17;;;;;;;;;;4408151;32;20245;-57
2021/01/09 04:06:06;;;;;;;4.17;2.60;;;;;;;;;;4395413;32;20233;-57
2021/01/09 04:08:32;;;;;;;7.10;3.43;;;;;;;;;;4403107;32;20308;-57
2021/01/09 04:10:58;;;;;;;6.07;3.47;;;;;;;;;;4404405;32;20693;-56
2021/01/09 04:13:23;;;;;;;7.47;3.87;;;;;;;;;;4398727;32;20312;-55
2021/01/09 04:15:49;;;;;;;4.53;3.17;;;;;;;;;;4388854;32;20354;-56
2021/01/09 04:18:14;;;;;;;6.37;3.30;;;;;;;;;;4389780;32;20251;-56
2021/01/09 04:20:41;;;;;;;5.10;2.80;;;;;;;;;;4404301;32;20558;-57
2021/01/09 04:23:06;;;;;;;9.77;3.43;;;;;;;;;;4408428;32;20983;-56
2021/01/09 04:25:33;;;;;;;4.73;2.57;;;;;;;;;;4403163;32;20358;-56
2021/01/09 04:27:58;;;;;;;3.40;1.93;;;;;;;;;;4403484;32;20257;-57
2021/01/09 04:30:24;;;;;;;5.23;3.10;;;;;;;;;;4397192;32;20381;-57
2021/01/09 04:32:50;;;;;;;3.60;2.63;;;;;;;;;;4398942;32;20837;-57
2021/01/09 04:35:15;;;;;;;4.17;2.97;;;;;;;;;;4400333;32;20297;-58
2021/01/09 04:37:40;;;;;;;3.50;1.70;;;;;;;;;;4405460;32;20415;-57
2021/01/09 04:40:07;;;;;;;4.67;3.30;;;;;;;;;;4404420;32;20317;-57
2021/01/09 04:42:34;;;;;;;4.03;2.63;;;;;;;;;;4407458;32;20226;-56
2021/01/09 04:45:00;;;;;;;2.90;1.77;;;;;;;;;;4414978;32;20395;-57
2021/01/09 04:47:26;;;;;;;3.70;1.80;;;;;;;;;;4410744;32;20229;-56
2021/01/09 04:49:52;;;;;;;1.80;1.50;;;;;;;;;;4409119;32;20263;-57
2021/01/09 04:52:19;;;;;;;1.67;1.23;;;;;;;;;;4411489;32;20309;-57
2021/01/09 04:54:46;;;;;;;1.77;1.40;;;;;;;;;;4403076;32;20233;-56
2021/01/09 04:57:12;;;;;;;2.33;1.70;;;;;;;;;;4408313;32;20226;-57
2021/01/09 04:59:38;;;;;;;3.80;2.17;;;;;;;;;;4408845;32;20252;-55
2021/01/09 05:02:04;;;;;;;2.87;1.97;;;;;;;;;;4417373;32;20405;-55
2021/01/09 05:04:30;;;;;;;4.43;1.83;;;;;;;;;;4409703;32;20248;-55
2021/01/09 05:06:55;;;;;;;1.97;1.57;;;;;;;;;;4412076;32;20217;-55
2021/01/09 05:09:21;;;;;;;2.17;1.87;;;;;;;;;;4396055;32;20316;-55
2021/01/09 05:11:46;;;;;;;2.80;1.97;;;;;;;;;;4397560;32;20665;-55
2021/01/09 05:14:12;;;;;;;3.03;2.40;;;;;;;;;;4405411;32;20908;-55
2021/01/09 05:16:39;;;;;;;4.77;1.70;;;;;;;;;;4399365;32;20627;-57
2021/01/09 05:19:06;;;;;;;3.17;1.40;;;;;;;;;;4393049;32;20336;-57
2021/01/09 05:21:35;;;;;;;2.00;1.80;;;;;;;;;;4393119;32;22455;-57
2021/01/09 05:24:08;;;;;;;2.03;1.53;;;;;;;;;;4408694;32;20233;-56
2021/01/09 05:26:35;;;;;;;2.03;1.73;;;;;;;;;;4409058;32;20290;-57
2021/01/09 05:29:02;;;;;;;2.93;1.67;;;;;;;;;;4405708;32;20233;-55
2021/01/09 05:31:31;;;;;;;7.73;3.57;;;;;;;;;;4411561;32;20272;-54
2021/01/09 05:33:57;;;;;;;3.43;2.10;;;;;;;;;;4413172;32;20425;-55
2021/01/09 05:36:23;;;;;;;4.97;1.70;;;;;;;;;;4415374;32;20375;-56
2021/01/09 05:38:50;;;;;;;2.90;2.00;;;;;;;;;;4416471;32;20267;-55
2021/01/09 05:41:18;;;;;;;3.27;2.43;;;;;;;;;;4417196;32;20205;-56
2021/01/09 05:44:04;;;;;;;3.37;1.87;;;;;;;;;;4406204;32;20347;-56
2021/01/09 05:46:35;;;;;;;8.13;4.07;;;;;;;;;;4408548;32;20348;-57
2021/01/09 05:49:01;;;;;;;3.53;2.60;;;;;;;;;;4410041;32;20319;-56
2021/01/09 05:51:32;;;;;;;4.23;3.47;;;;;;;;;;4409639;32;20303;-55
2021/01/09 05:53:57;;;;;;;3.67;2.50;;;;;;;;;;4411716;32;20547;-54
2021/01/09 05:56:23;;;;;;;3.30;2.30;;;;;;;;;;4416160;32;20224;-55
2021/01/09 05:58:50;;;;;;;1.90;1.40;;;;;;;;;;4416397;32;20302;-55
2021/01/09 06:01:23;;;;;;;2.00;1.60;;;;;;;;;;4416337;32;20213;-55
2021/01/09 06:03:56;;;;;;;2.93;1.87;;;;;;;;;;4407222;32;20226;-55
2021/01/09 06:06:22;;;;;;;2.87;1.90;;;;;;;;;;4415255;32;20243;-54
2021/01/09 06:08:54;;;;;;;5.13;1.90;;;;;;;;;;4414469;32;20763;-54
2021/01/09 06:11:29;;;;;;;5.30;2.83;;;;;;;;;;4417295;32;20595;-54
2021/01/09 06:13:58;;;;;;;9.80;5.67;;;;;;;;;;4413447;32;20271;-54
2021/01/09 06:16:25;;;;;;;7.27;5.43;;;;;;;;;;4416923;32;20240;-54
2021/01/09 06:18:51;;;;;;;5.97;4.37;;;;;;;;;;4416513;32;20244;-54
2021/01/09 06:21:18;;;;;;;9.07;5.33;;;;;;;;;;4417111;32;20241;-54
2021/01/09 06:23:44;;;;;;;9.10;5.53;;;;;;;;;;4408802;32;20254;-58
2021/01/09 06:26:13;;;;;;;8.03;5.07;;;;;;;;;;4417276;32;20287;-55
2021/01/09 06:28:45;;;;;;;10.40;6.93;;;;;;;;;;4413607;32;20276;-55
2021/01/09 06:31:18;;;;;;;12.77;7.73;;;;;;;;;;4416182;32;20486;-56
2021/01/09 06:33:51;;;;;;;10.10;6.83;;;;;;;;;;4416630;32;20261;-55
2021/01/09 06:36:19;;;;;;;9.13;5.43;;;;;;;;;;4416654;32;20205;-56
2021/01/09 06:38:51;;;;;;;7.10;3.67;;;;;;;;;;4400587;32;20295;-56
2021/01/09 06:41:18;;;;;;;5.00;3.67;;;;;;;;;;4410943;32;20221;-55
2021/01/09 06:43:47;;;;;;;5.53;3.60;;;;;;;;;;4412334;32;20332;-56
2021/01/09 06:46:25;;;;;;;7.13;5.23;;;;;;;;;;4415455;32;20220;-56
2021/01/09 06:48:50;;;;;;;4.87;4.30;;;;;;;;;;4415750;32;20221;-57
2021/01/09 06:51:51;;;;;;;8.83;5.53;;;;;;;;;;4416202;32;20200;-57
2021/01/09 06:54:43;;;;;;;7.17;5.80;;;;;;;;;;4397114;32;20259;-56
2021/01/09 06:57:10;;;;;;;4.67;3.60;;;;;;;;;;4413267;32;20209;-56
2021/01/09 06:59:38;;;;;;;6.77;4.80;;;;;;;;;;4410729;32;20259;-56
2021/01/09 07:02:22;;;;;;;6.83;5.30;;;;;;;;;;4412109;32;20300;-56
2021/01/09 07:05:10;;;;;;;13.13;10.00;;;;;;;;;;4406415;32;20241;-55
2021/01/09 07:07:52;;;;;;;14.67;11.23;;;;;;;;;;4413093;32;20209;-56
2021/01/09 07:10:24;;;;;;;18.23;10.03;;;;;;;;;;4410631;32;20614;-56
2021/01/09 07:12:57;;;;;;;10.43;7.13;;;;;;;;;;4408308;32;20359;-56
2021/01/09 07:15:25;;;;;;;11.20;9.70;;;;;;;;;;4413479;32;20327;-56
2021/01/09 07:17:59;;;;;;;8.27;6.27;;;;;;;;;;4411868;32;20245;-55
2021/01/09 07:20:45;;;;;;;10.13;7.00;;;;;;;;;;4410329;32;20574;-55
2021/01/09 07:23:16;;;;;;;26.70;17.97;;;;;;;;;;4413666;32;20205;-54
2021/01/09 07:25:45;;;;;;;59.90;36.37;;;;;;;;;;4412617;32;20371;-55
2021/01/09 07:28:21;;;;;;;41.70;22.43;;;;;;;;;;4400453;32;20332;-57
2021/01/09 07:30:47;;;;;;;24.10;15.53;;;;;;;;;;4403366;32;20293;-57
2021/01/09 07:33:14;;;;;;;6.10;4.70;;;;;;;;;;4409577;32;20616;-56
2021/01/09 07:35:45;;;;;;;14.43;9.10;;;;;;;;;;4410889;32;20998;-56
2021/01/09 07:38:12;;;;;;;20.63;11.03;;;;;;;;;;4413896;32;20282;-56
2021/01/09 07:40:53;;;;;;;17.97;9.03;;;;;;;;;;4414894;32;20232;-57
2021/01/09 07:43:41;;;;;;;15.97;8.03;;;;;;;;;;4414244;32;20355;-57
2021/01/09 07:46:22;;;;;;;26.20;16.83;;;;;;;;;;4406620;32;20677;-56
2021/01/09 07:48:48;;;;;;;55.90;28.50;;;;;;;;;;4411001;32;20556;-56
2021/01/09 07:51:15;;;;;;;33.87;19.13;;;;;;;;;;4413813;32;20357;-57
2021/01/09 07:53:48;;;;;;;26.10;14.20;;;;;;;;;;4414430;32;20416;-56
2021/01/09 07:56:36;;;;;;;21.87;12.87;;;;;;;;;;4413218;32;20786;-54
2021/01/09 07:59:03;;;;;;;25.40;14.63;;;;;;;;;;4411141;32;20376;-54
2021/01/09 08:01:29;;;;;;;15.73;9.33;;;;;;;;;;4415561;32;20256;-54
2021/01/09 08:03:57;;;;;;;17.27;10.90;;;;;;;;;;4411415;32;20240;-54
2021/01/09 08:06:22;;;;;;;13.07;8.20;;;;;;;;;;4418093;32;20221;-54
2021/01/09 08:08:51;;;;;;;18.60;10.63;;;;;;;;;;4406231;32;20331;-55
2021/01/09 08:11:16;;;;;;;18.70;11.30;;;;;;;;;;4418930;32;20768;-54
2021/01/09 08:13:42;;;;;;;10.27;6.57;;;;;;;;;;4418533;32;20232;-54
2021/01/09 08:16:07;;;;;;;13.63;7.57;;;;;;;;;;4417802;32;20318;-54
2021/01/09 08:18:33;;;;;;;16.03;8.73;;;;;;;;;;4409108;32;20346;-54
2021/01/09 08:20:59;;;;;;;22.40;11.80;;;;;;;;;;4417892;32;20658;-58
2021/01/09 08:23:24;;;;;;;17.83;10.17;;;;;;;;;;4418316;32;20464;-57
2021/01/09 08:25:51;;;;;;;14.53;10.27;;;;;;;;;;4417398;32;20326;-57
2021/01/09 08:28:17;;;;;;;11.57;9.10;;;;;;;;;;4417765;32;20296;-54
2021/01/09 08:30:43;;;;;;;9.27;6.83;;;;;;;;;;4418524;32;20213;-56
2021/01/09 08:33:16;;;;;;;12.73;8.77;;;;;;;;;;4408375;32;20734;-56
2021/01/09 08:35:52;;;;;;;30.03;17.83;;;;;;;;;;4418686;32;20673;-56
2021/01/09 08:38:18;;;;;;;22.57;14.13;;;;;;;;;;4400190;32;20728;-57
2021/01/09 08:40:43;;;;;;;27.60;17.97;;;;;;;;;;4409507;32;20236;-57
2021/01/09 08:43:11;;;;;;;34.23;22.60;;;;;;;;;;4412414;32;20216;-58
2021/01/09 08:45:51;;;;;;;20.20;15.10;;;;;;;;;;4404722;32;20242;-56
2021/01/09 08:48:19;;;;;;;10.10;6.53;;;;;;;;;;4414209;32;20232;-57
2021/01/09 08:50:46;;;;;;;9.07;4.97;;;;;;;;;;4418381;32;20713;-57
2021/01/09 08:53:13;;;;;;;8.77;5.37;;;;;;;;;;4417290;32;20375;-58
2021/01/09 08:55:39;;;;;;;9.00;5.30;;;;;;;;;;4410046;32;20268;-56
2021/01/09 08:58:13;;;;;;;8.27;5.63;;;;;;;;;;4416635;32;20628;-57
2021/01/09 09:00:39;;;;;;;17.63;11.37;;;;;;;;;;4416354;32;20276;-56
2021/01/09 09:03:08;;;;;;;9.50;6.67;;;;;;;;;;4415735;32;20432;-54
2021/01/09 09:05:35;;;;;;;7.40;5.10;;;;;;;;;;4417631;32;20307;-56
2021/01/09 09:08:02;;;;;;;5.17;4.00;;;;;;;;;;4415213;32;20276;-56
2021/01/09 09:10:31;;;;;;;9.37;7.20;;;;;;;;;;4416927;32;20330;-56
2021/01/09 09:13:16;;;;;;;15.47;6.43;;;;;;;;;;4411392;32;20244;-56
2021/01/09 09:15:41;;;;;;;10.90;6.70;;;;;;;;;;4406921;32;20312;-56
2021/01/09 09:18:09;;;;;;;8.13;5.83;;;;;;;;;;4415998;32;20566;-56
2021/01/09 09:20:35;;;;;;;7.10;4.23;;;;;;;;;;4418241;32;20221;-57
2021/01/09 09:23:37;;;;;;;7.83;5.33;;;;;;;;;;4415731;32;20401;-57
2021/01/09 09:26:02;;;;;;;14.73;9.10;;;;;;;;;;4353413;32;20257;-56
2021/01/09 09:28:27;;;;;;;14.80;8.40;;;;;;;;;;4401865;32;20435;-55
2021/01/09 09:30:53;;;;;;;7.67;3.23;;;;;;;;;;4408723;32;20266;-55
2021/01/09 09:33:19;;;;;;;21.53;14.60;;;;;;;;;;4417656;32;20490;-56
2021/01/09 09:35:45;;;;;;;15.33;6.47;;;;;;;;;;4410505;32;20451;-56
2021/01/09 09:38:12;;;;;;;16.77;10.03;;;;;;;;;;4407232;32;20284;-56
2021/01/09 09:40:39;;;;;;;18.27;9.27;;;;;;;;;;4401624;32;20316;-56
2021/01/09 09:43:10;;;;;;;14.80;8.30;;;;;;;;;;4406600;32;20229;-56
2021/01/09 09:45:36;;;;;;;18.27;8.73;;;;;;;;;;4398998;32;20249;-56
2021/01/09 09:48:02;;;;;;;15.17;10.07;;;;;;;;;;4409782;32;20389;-57
2021/01/09 09:50:28;;;;;;;15.10;9.30;;;;;;;;;;4395039;32;21744;-55
2021/01/09 09:52:58;;;;;;;15.13;8.33;;;;;;;;;;4406659;32;20327;-54
2021/01/09 09:55:24;;;;;;;5.37;3.67;;;;;;;;;;4409067;32;20355;-55
2021/01/09 09:58:07;;;;;;;6.80;4.67;;;;;;;;;;4409547;32;20382;-55
2021/01/09 10:00:40;;;;;;;3.60;1.97;;;;;;;;;;4408686;32;20632;-55
2021/01/09 10:03:06;;;;;;;3.50;2.50;;;;;;;;;;4402657;32;20237;-55
2021/01/09 10:05:31;;;;;;;46.33;33.43;;;;;;;;;;4410110;32;20391;-56
2021/01/09 10:08:15;;;;;;;7.50;5.93;;;;;;;;;;4414036;32;20299;-55
2021/01/09 10:10:42;;;;;;;20.50;15.40;;;;;;;;;;4408296;32;20353;-54
2021/01/09 10:13:08;;;;;;;8.10;7.27;;;;;;;;;;4409436;32;20217;-54
2021/01/09 10:15:34;;;;;;;6.90;5.50;;;;;;;;;;4407732;32;20283;-54
2021/01/09 10:18:01;;;;;;;5.87;4.40;;;;;;;;;;4416640;32;20251;-54
2021/01/09 10:20:27;;;;;;;21.97;18.13;;;;;;;;;;4416630;32;20340;-56
2021/01/09 10:22:53;;;;;;;10.37;8.60;;;;;;;;;;4417884;32;20243;-55
2021/01/09 10:25:19;;;;;;;7.37;5.07;;;;;;;;;;4407653;32;20213;-55
2021/01/09 10:27:44;;;;;;;5.80;4.30;;;;;;;;;;4406986;32;20275;-54
2021/01/09 10:30:10;;;;;;;8.17;5.93;;;;;;;;;;4416648;32;20282;-55
2021/01/09 10:32:36;;;;;;;6.17;3.07;;;;;;;;;;4415986;32;20316;-55
2021/01/09 10:35:01;;;;;;;5.80;4.07;;;;;;;;;;4411972;32;20364;-55
2021/01/09 10:37:27;;;;;;;7.10;4.87;;;;;;;;;;4407262;32;20586;-55
2021/01/09 10:39:52;;;;;;;8.60;5.53;;;;;;;;;;4404863;32;20225;-54
2021/01/09 10:42:18;;;;;;;12.80;6.73;;;;;;;;;;4405248;32;20292;-54
2021/01/09 10:44:43;;;;;;;10.53;6.90;;;;;;;;;;4405328;32;20263;-55
2021/01/09 10:47:09;;;;;;;27.57;14.73;;;;;;;;;;4404012;32;20350;-54
2021/01/09 10:49:34;;;;;;;11.57;10.13;;;;;;;;;;4410476;32;20292;-53
2021/01/09 10:52:00;;;;;;;6.03;4.63;;;;;;;;;;4409524;32;20384;-53
2021/01/09 10:54:26;;;;;;;11.73;7.87;;;;;;;;;;4413261;32;20672;-55
2021/01/09 10:56:52;;;;;;;16.67;12.77;;;;;;;;;;4389381;32;20701;-54
2021/01/09 10:59:17;;;;;;;26.23;12.13;;;;;;;;;;4392210;32;20696;-54
2021/01/09 11:01:43;;;;;;;25.30;13.37;;;;;;;;;;4398331;32;20319;-53
2021/01/09 11:04:09;;;;;;;10.50;6.30;;;;;;;;;;4400192;32;20236;-53
2021/01/09 11:06:35;;;;;;;9.07;5.40;;;;;;;;;;4386399;32;20370;-55
2021/01/09 11:09:00;;;;;;;9.13;6.03;;;;;;;;;;4390919;32;20552;-57
2021/01/09 11:11:26;;;;;;;17.07;8.47;;;;;;;;;;4383019;32;20566;-57
2021/01/09 11:13:51;;;;;;;20.43;11.13;;;;;;;;;;4379055;32;20366;-55
2021/01/09 11:16:21;;;;;;;21.20;11.23;;;;;;;;;;4387968;32;20290;-53
2021/01/09 11:18:47;;;;;;;24.40;13.63;;;;;;;;;;4394919;32;20292;-55
2021/01/09 11:21:13;;;;;;;11.03;6.40;;;;;;;;;;4389168;32;20217;-55
2021/01/09 11:23:41;;;;;;;9.07;7.40;;;;;;;;;;4386064;32;20636;-54
2021/01/09 11:26:07;;;;;;;6.37;4.87;;;;;;;;;;4386128;32;20248;-54
2021/01/09 11:28:32;;;;;;;5.03;4.50;;;;;;;;;;4392071;32;20253;-54
2021/01/09 11:30:58;;;;;;;12.70;8.37;;;;;;;;;;4392842;32;20272;-53
2021/01/09 11:33:24;;;;;;;6.57;4.80;;;;;;;;;;4396009;32;20444;-53
2021/01/09 11:35:49;;;;;;;5.43;4.27;;;;;;;;;;4397616;32;20306;-54
2021/01/09 11:38:15;;;;;;;4.33;3.57;;;;;;;;;;4380327;32;20852;-55
2021/01/09 11:40:40;;;;;;;4.33;3.60;;;;;;;;;;4394074;32;20368;-54
2021/01/09 11:43:06;;;;;;;10.03;5.57;;;;;;;;;;4395194;32;20327;-54
2021/01/09 11:45:32;;;;;;;8.57;5.87;;;;;;;;;;4393978;32;20305;-54
2021/01/09 11:47:58;;;;;;;2.67;2.13;;;;;;;;;;4395398;32;20273;-54
2021/01/09 11:50:23;;;;;;;10.53;7.33;;;;;;;;;;4397155;32;20658;-55
2021/01/09 11:52:49;;;;;;;4.47;3.83;;;;;;;;;;4394806;32;20439;-54
2021/01/09 11:55:14;;;;;;;11.67;7.47;;;;;;;;;;4380167;32;20281;-53
2021/01/09 11:57:40;;;;;;;3.73;2.87;;;;;;;;;;4404676;32;20229;-52
2021/01/09 12:00:15;;;;;;;8.23;3.37;;;;;;;;;;4414760;32;20259;-55
2021/01/09 12:02:40;;;;;;;5.97;2.60;;;;;;;;;;4405494;32;20216;-54
2021/01/09 12:05:07;;;;;;;23.43;10.27;;;;;;;;;;4413777;32;20570;-53
2021/01/09 12:07:33;;;;;;;7.70;4.23;;;;;;;;;;4408127;32;20650;-54
2021/01/09 12:09:58;;;;;;;6.33;3.20;;;;;;;;;;4406334;32;20293;-53
2021/01/09 12:12:25;;;;;;;15.53;6.63;;;;;;;;;;4406761;32;20272;-54
2021/01/09 12:14:51;;;;;;;39.60;12.70;;;;;;;;;;4410971;32;20257;-53
2021/01/09 12:17:16;;;;;;;10.47;3.17;;;;;;;;;;4407493;32;20594;-53
2021/01/09 12:19:42;;;;;;;15.07;10.33;;;;;;;;;;4413365;32;20241;-53
2021/01/09 12:22:07;;;;;;;41.07;17.23;;;;;;;;;;4405844;32;20244;-53
2021/01/09 12:24:32;;;;;;;13.73;5.70;;;;;;;;;;4412276;32;20241;-53
2021/01/09 12:26:58;;;;;;;13.10;4.90;;;;;;;;;;4413540;32;20266;-53
2021/01/09 12:29:23;;;;;;;30.90;12.30;;;;;;;;;;4413252;32;20324;-55
2021/01/09 12:31:49;;;;;;;12.47;6.47;;;;;;;;;;4407911;32;20348;-54
2021/01/09 12:34:16;;;;;;;51.13;17.47;;;;;;;;;;4412615;32;20991;-54
2021/01/09 12:36:42;;;;;;;26.57;9.50;;;;;;;;;;4413801;32;20308;-53
2021/01/09 12:39:08;;;;;;;26.07;13.27;;;;;;;;;;4411942;32;20228;-54
2021/01/09 12:41:39;;;;;;;48.80;19.37;;;;;;;;;;4413363;32;20729;-54
2021/01/09 12:44:06;;;;;;;10.97;6.57;;;;;;;;;;4413779;32;20972;-54
2021/01/09 12:46:43;;;;;;;10.20;6.60;;;;;;;;;;4412306;32;20855;-55
2021/01/09 12:49:17;;;;;;;30.13;14.37;;;;;;;;;;4396181;32;20249;-56
2021/01/09 12:51:43;;;;;;;15.77;9.87;;;;;;;;;;4398315;32;20367;-56
2021/01/09 12:54:09;;;;;;;34.33;17.23;;;;;;;;;;4397989;32;20245;-56
2021/01/09 12:56:35;;;;;;;38.13;20.70;;;;;;;;;;4389321;32;20380;-56
2021/01/09 12:59:04;;;;;;;16.23;10.97;;;;;;;;;;4419248;32;20881;-55
2021/01/09 13:01:34;;;;;;;14.53;10.27;;;;;;;;;;4400020;32;20387;-54
2021/01/09 13:04:00;;;;;;;15.00;7.33;;;;;;;;;;4405190;32;20267;-54
2021/01/09 13:06:26;;;;;;;15.93;9.87;;;;;;;;;;4396237;32;20292;-54
2021/01/09 13:08:53;;;;;;;17.60;11.57;;;;;;;;;;4412272;32;20388;-55
2021/01/09 13:11:20;;;;;;;27.27;16.13;;;;;;;;;;4407903;32;20272;-55
2021/01/09 13:13:47;;;;;;;34.33;20.93;;;;;;;;;;4412909;32;20632;-55
2021/01/09 13:16:14;;;;;;;25.00;15.30;;;;;;;;;;4412858;32;21009;-54
2021/01/09 13:18:39;;;;;;;10.37;5.90;;;;;;;;;;4404627;32;20276;-54
2021/01/09 13:21:05;;;;;;;12.37;7.33;;;;;;;;;;4413577;32;20677;-54
2021/01/09 13:23:31;;;;;;;14.97;9.73;;;;;;;;;;4413233;32;20800;-55
2021/01/09 13:26:04;;;;;;;21.93;14.47;;;;;;;;;;4408098;32;20252;-55
2021/01/09 13:28:30;;;;;;;62.27;30.00;;;;;;;;;;4398651;32;20233;-55
2021/01/09 13:30:55;;;;;;;32.33;21.93;;;;;;;;;;4405157;32;20251;-55
2021/01/09 13:33:21;;;;;;;26.93;15.00;;;;;;;;;;4407246;32;20299;-54
2021/01/09 13:35:47;;;;;;;19.67;12.50;;;;;;;;;;4403063;32;20225;-54
2021/01/09 13:38:12;;;;;;;24.43;16.07;;;;;;;;;;4402935;32;21158;-56
2021/01/09 13:40:38;;;;;;;25.87;13.03;;;;;;;;;;4400722;32;20313;-54
2021/01/09 13:43:03;;;;;;;74.97;43.80;;;;;;;;;;4400926;32;20332;-55
2021/01/09 13:45:29;;;;;;;51.53;31.77;;;;;;;;;;4414836;32;20302;-54
2021/01/09 13:47:54;;;;;;;40.40;24.10;;;;;;;;;;4406247;32;20268;-54
2021/01/09 13:50:20;;;;;;;98.70;61.17;;;;;;;;;;4407701;32;20230;-55
2021/01/09 13:52:51;;;;;;;94.33;48.43;;;;;;;;;;4409719;32;20349;-55
2021/01/09 13:55:17;;;;;;;66.80;39.57;;;;;;;;;;4415401;32;20263;-54
2021/01/09 13:57:49;;;;;;;86.53;47.20;;;;;;;;;;4407013;32;20241;-55
2021/01/09 14:00:17;;;;;;;61.93;33.03;;;;;;;;;;4407439;32;20568;-55
2021/01/09 14:02:45;;;;;;;47.07;28.57;;;;;;;;;;4402524;32;20225;-55
2021/01/09 14:05:11;;;;;;;62.83;35.70;;;;;;;;;;4406070;32;20311;-55
2021/01/09 14:07:37;;;;;;;43.83;27.93;;;;;;;;;;4412431;32;20236;-55
2021/01/09 14:10:04;;;;;;;39.73;22.80;;;;;;;;;;4401221;32;20237;-54
2021/01/09 14:12:31;;;;;;;37.23;25.23;;;;;;;;;;4409844;32;20230;-55
2021/01/09 14:14:57;;;;;;;33.73;22.67;;;;;;;;;;4402954;32;20261;-55
2021/01/09 14:17:22;;;;;;;38.73;22.93;;;;;;;;;;4398982;32;20966;-54
2021/01/09 14:19:48;;;;;;;44.27;27.07;;;;;;;;;;4407485;32;20245;-54
2021/01/09 14:22:13;;;;;;;32.30;20.70;;;;;;;;;;4401221;32;20718;-55
2021/01/09 14:24:39;;;;;;;64.17;30.30;;;;;;;;;;4401816;32;20792;-55
2021/01/09 14:27:06;;;;;;;44.80;23.30;;;;;;;;;;4409897;32;20306;-55
2021/01/09 14:29:31;;;;;;;30.60;18.17;;;;;;;;;;4409966;32;20316;-54
2021/01/09 14:31:57;;;;;;;39.07;20.53;;;;;;;;;;4401312;32;20260;-54
2021/01/09 14:34:22;;;;;;;36.33;21.73;;;;;;;;;;4405245;32;20600;-54
2021/01/09 14:36:48;;;;;;;44.60;26.93;;;;;;;;;;4415748;32;20318;-55